sensor_id;sensor_type;location;lat;lon;timestamp;P1;durP1;ratioP1;P2;durP2;ratioP2
48703;SDS011;34502;51.296;16.918;2024-01-06T09:09:25;43.13;;;24.30;;
48703;SDS011;34502;51.296;16.918;2024-01-06T09:11:53;42.00;;;23.95;;
48703;SDS011;34502;51.296;16.918;2024-01-06T09:14:19;47.08;;;24.85;;
48703;SDS011;34502;51.296;16.918;2024-01-06T09:16:45;47.08;;;24.27;;
48703;SDS011;34502;51.296;16.918;2024-01-06T09:19:11;46.20;;;26.27;;
48703;SDS011;34502;51.296;16.918;2024-01-06T09:21:38;42.55;;;24.67;;
48703;SDS011;34502;51.296;16.918;2024-01-06T09:24:04;40.85;;;23.60;;
48703;SDS011;34502;51.296;16.918;2024-01-06T09:26:34;48.63;;;25.48;;
48703;SDS011;34502;51.296;16.918;2024-01-06T09:29:03;43.65;;;25.48;;
48703;SDS011;34502;51.296;16.918;2024-01-06T09:31:30;45.72;;;24.95;;
48703;SDS011;34502;51.296;16.918;2024-01-06T09:33:59;44.53;;;23.70;;
48703;SDS011;34502;51.296;16.918;2024-01-06T09:36:30;42.70;;;25.27;;
48703;SDS011;34502;51.296;16.918;2024-01-06T09:38:56;45.60;;;25.27;;
48703;SDS011;34502;51.296;16.918;2024-01-06T09:41:23;40.63;;;24.40;;
48703;SDS011;34502;51.296;16.918;2024-01-06T09:43:49;48.38;;;26.60;;
48703;SDS011;34502;51.296;16.918;2024-01-06T09:46:25;43.45;;;26.42;;
48703;SDS011;34502;51.296;16.918;2024-01-06T09:48:55;41.80;;;24.98;;
48703;SDS011;34502;51.296;16.918;2024-01-06T09:51:22;46.38;;;27.35;;
48703;SDS011;34502;51.296;16.918;2024-01-06T09:53:52;48.97;;;26.75;;
48703;SDS011;34502;51.296;16.918;2024-01-06T09:56:26;46.97;;;27.10;;
48703;SDS011;34502;51.296;16.918;2024-01-06T09:58:55;49.42;;;27.63;;
48703;SDS011;34502;51.296;16.918;2024-01-06T10:01:22;50.25;;;28.10;;
48703;SDS011;34502;51.296;16.918;2024-01-06T10:03:48;48.92;;;28.50;;
48703;SDS011;34502;51.296;16.918;2024-01-06T10:06:15;45.08;;;26.50;;
48703;SDS011;34502;51.296;16.918;2024-01-06T10:08:51;54.28;;;31.35;;
48703;SDS011;34502;51.296;16.918;2024-01-06T10:11:24;54.20;;;29.13;;
48703;SDS011;34502;51.296;16.918;2024-01-06T10:13:51;48.30;;;28.92;;
48703;SDS011;34502;51.296;16.918;2024-01-06T10:16:19;46.88;;;29.73;;
48703;SDS011;34502;51.296;16.918;2024-01-06T10:18:45;48.83;;;29.85;;
48703;SDS011;34502;51.296;16.918;2024-01-06T10:21:11;54.33;;;30.25;;
48703;SDS011;34502;51.296;16.918;2024-01-06T10:23:38;50.22;;;31.10;;
48703;SDS011;34502;51.296;16.918;2024-01-06T10:26:06;55.28;;;31.80;;
48703;SDS011;34502;51.296;16.918;2024-01-06T10:28:35;61.92;;;35.08;;
48703;SDS011;34502;51.296;16.918;2024-01-06T10:31:02;58.42;;;35.20;;
48703;SDS011;34502;51.296;16.918;2024-01-06T10:33:28;58.15;;;35.85;;
48703;SDS011;34502;51.296;16.918;2024-01-06T10:35:54;61.55;;;37.33;;
48703;SDS011;34502;51.296;16.918;2024-01-06T10:38:21;60.92;;;37.63;;
48703;SDS011;34502;51.296;16.918;2024-01-06T10:43:32;61.95;;;37.97;;
48703;SDS011;34502;51.296;16.918;2024-01-06T10:46:05;64.55;;;37.80;;
48703;SDS011;34502;51.296;16.918;2024-01-06T10:48:35;64.18;;;38.95;;
48703;SDS011;34502;51.296;16.918;2024-01-06T10:51:08;66.35;;;39.42;;
48703;SDS011;34502;51.296;16.918;2024-01-06T10:53:34;62.47;;;38.53;;
48703;SDS011;34502;51.296;16.918;2024-01-06T10:56:02;69.65;;;42.42;;
48703;SDS011;34502;51.296;16.918;2024-01-06T10:58:30;67.25;;;40.72;;
48703;SDS011;34502;51.296;16.918;2024-01-06T11:00:58;75.47;;;42.33;;
48703;SDS011;34502;51.296;16.918;2024-01-06T11:03:24;70.85;;;42.10;;
48703;SDS011;34502;51.296;16.918;2024-01-06T11:05:50;74.65;;;44.03;;
48703;SDS011;34502;51.296;16.918;2024-01-06T11:08:17;79.38;;;45.35;;
48703;SDS011;34502;51.296;16.918;2024-01-06T11:10:43;80.95;;;47.05;;
48703;SDS011;34502;51.296;16.918;2024-01-06T11:13:11;75.70;;;44.63;;
48703;SDS011;34502;51.296;16.918;2024-01-06T11:15:41;78.82;;;44.83;;
48703;SDS011;34502;51.296;16.918;2024-01-06T11:18:08;76.07;;;43.58;;
48703;SDS011;34502;51.296;16.918;2024-01-06T11:20:34;78.93;;;45.20;;
48703;SDS011;34502;51.296;16.918;2024-01-06T11:23:18;84.35;;;45.40;;
48703;SDS011;34502;51.296;16.918;2024-01-06T11:25:45;83.78;;;48.08;;
48703;SDS011;34502;51.296;16.918;2024-01-06T11:28:11;78.82;;;45.60;;
48703;SDS011;34502;51.296;16.918;2024-01-06T11:30:38;81.90;;;45.20;;
48703;SDS011;34502;51.296;16.918;2024-01-06T11:33:05;81.70;;;46.97;;
48703;SDS011;34502;51.296;16.918;2024-01-06T11:35:31;72.47;;;42.85;;
48703;SDS011;34502;51.296;16.918;2024-01-06T11:38:01;79.88;;;47.50;;
48703;SDS011;34502;51.296;16.918;2024-01-06T11:40:32;91.20;;;46.53;;
48703;SDS011;34502;51.296;16.918;2024-01-06T11:45:32;77.75;;;45.53;;
48703;SDS011;34502;51.296;16.918;2024-01-06T11:48:00;74.93;;;45.40;;
48703;SDS011;34502;51.296;16.918;2024-01-06T11:50:27;78.47;;;45.10;;
48703;SDS011;34502;51.296;16.918;2024-01-06T11:52:55;78.03;;;43.33;;
48703;SDS011;34502;51.296;16.918;2024-01-06T11:55:21;76.75;;;44.45;;
48703;SDS011;34502;51.296;16.918;2024-01-06T11:57:47;89.97;;;54.78;;
48703;SDS011;34502;51.296;16.918;2024-01-06T12:00:15;91.30;;;52.67;;
48703;SDS011;34502;51.296;16.918;2024-01-06T12:02:42;127.78;;;80.22;;
48703;SDS011;34502;51.296;16.918;2024-01-06T12:05:17;93.90;;;54.90;;
48703;SDS011;34502;51.296;16.918;2024-01-06T12:07:52;74.22;;;42.65;;
48703;SDS011;34502;51.296;16.918;2024-01-06T12:10:23;70.38;;;42.83;;
48703;SDS011;34502;51.296;16.918;2024-01-06T12:12:57;75.47;;;44.10;;
48703;SDS011;34502;51.296;16.918;2024-01-06T12:15:24;80.65;;;45.47;;
48703;SDS011;34502;51.296;16.918;2024-01-06T12:17:50;75.85;;;43.70;;
48703;SDS011;34502;51.296;16.918;2024-01-06T12:20:17;86.65;;;47.42;;
48703;SDS011;34502;51.296;16.918;2024-01-06T12:22:43;86.70;;;47.78;;
48703;SDS011;34502;51.296;16.918;2024-01-06T12:25:09;83.20;;;45.97;;
48703;SDS011;34502;51.296;16.918;2024-01-06T12:27:43;77.40;;;42.83;;
48703;SDS011;34502;51.296;16.918;2024-01-06T12:30:15;79.32;;;43.08;;
48703;SDS011;34502;51.296;16.918;2024-01-06T12:32:44;82.72;;;46.80;;
48703;SDS011;34502;51.296;16.918;2024-01-06T12:35:11;86.70;;;45.78;;
48703;SDS011;34502;51.296;16.918;2024-01-06T12:37:37;74.65;;;42.00;;
48703;SDS011;34502;51.296;16.918;2024-01-06T12:40:04;77.40;;;42.05;;
48703;SDS011;34502;51.296;16.918;2024-01-06T12:42:34;86.90;;;47.28;;
48703;SDS011;34502;51.296;16.918;2024-01-06T12:45:01;83.90;;;45.72;;
48703;SDS011;34502;51.296;16.918;2024-01-06T12:47:27;85.22;;;46.17;;
48703;SDS011;34502;51.296;16.918;2024-01-06T12:49:56;81.40;;;44.15;;
48703;SDS011;34502;51.296;16.918;2024-01-06T12:52:23;77.75;;;43.72;;
48703;SDS011;34502;51.296;16.918;2024-01-06T12:54:49;76.15;;;43.63;;
48703;SDS011;34502;51.296;16.918;2024-01-06T12:57:16;76.68;;;45.13;;
48703;SDS011;34502;51.296;16.918;2024-01-06T12:59:42;84.72;;;45.75;;
48703;SDS011;34502;51.296;16.918;2024-01-06T13:02:08;82.38;;;43.75;;
48703;SDS011;34502;51.296;16.918;2024-01-06T13:04:34;80.30;;;43.88;;
48703;SDS011;34502;51.296;16.918;2024-01-06T13:07:00;77.82;;;41.75;;
48703;SDS011;34502;51.296;16.918;2024-01-06T13:09:27;82.70;;;45.13;;
48703;SDS011;34502;51.296;16.918;2024-01-06T13:11:53;80.13;;;44.63;;
48703;SDS011;34502;51.296;16.918;2024-01-06T13:14:21;70.75;;;40.08;;
48703;SDS011;34502;51.296;16.918;2024-01-06T13:16:47;79.00;;;41.45;;
48703;SDS011;34502;51.296;16.918;2024-01-06T13:19:13;70.22;;;40.60;;
48703;SDS011;34502;51.296;16.918;2024-01-06T13:21:39;70.80;;;41.50;;
48703;SDS011;34502;51.296;16.918;2024-01-06T13:24:06;73.13;;;40.10;;
48703;SDS011;34502;51.296;16.918;2024-01-06T13:26:32;79.75;;;44.58;;
48703;SDS011;34502;51.296;16.918;2024-01-06T13:28:58;71.95;;;41.38;;
48703;SDS011;34502;51.296;16.918;2024-01-06T13:31:26;72.15;;;41.40;;
48703;SDS011;34502;51.296;16.918;2024-01-06T13:33:52;67.75;;;39.08;;
48703;SDS011;34502;51.296;16.918;2024-01-06T13:36:22;73.03;;;37.90;;
48703;SDS011;34502;51.296;16.918;2024-01-06T13:38:48;66.93;;;38.58;;
48703;SDS011;34502;51.296;16.918;2024-01-06T13:41:14;80.68;;;41.70;;
48703;SDS011;34502;51.296;16.918;2024-01-06T13:43:41;71.85;;;39.45;;
48703;SDS011;34502;51.296;16.918;2024-01-06T13:46:07;72.75;;;39.42;;
48703;SDS011;34502;51.296;16.918;2024-01-06T13:48:33;69.38;;;39.15;;
48703;SDS011;34502;51.296;16.918;2024-01-06T13:50:59;71.22;;;37.95;;
48703;SDS011;34502;51.296;16.918;2024-01-06T13:53:26;71.65;;;39.60;;
48703;SDS011;34502;51.296;16.918;2024-01-06T13:55:52;70.95;;;38.22;;
48703;SDS011;34502;51.296;16.918;2024-01-06T13:58:18;70.65;;;39.70;;
48703;SDS011;34502;51.296;16.918;2024-01-06T14:00:44;79.22;;;44.58;;
48703;SDS011;34502;51.296;16.918;2024-01-06T14:03:10;74.43;;;39.60;;
48703;SDS011;34502;51.296;16.918;2024-01-06T14:05:36;75.15;;;38.83;;
48703;SDS011;34502;51.296;16.918;2024-01-06T14:08:03;67.35;;;36.30;;
48703;SDS011;34502;51.296;16.918;2024-01-06T14:10:29;64.95;;;36.70;;
48703;SDS011;34502;51.296;16.918;2024-01-06T14:12:56;76.75;;;40.03;;
48703;SDS011;34502;51.296;16.918;2024-01-06T14:15:23;79.93;;;43.63;;
48703;SDS011;34502;51.296;16.918;2024-01-06T14:17:51;71.45;;;39.88;;
48703;SDS011;34502;51.296;16.918;2024-01-06T14:20:18;75.05;;;42.53;;
48703;SDS011;34502;51.296;16.918;2024-01-06T14:22:45;75.30;;;42.47;;
48703;SDS011;34502;51.296;16.918;2024-01-06T14:25:14;74.65;;;39.92;;
48703;SDS011;34502;51.296;16.918;2024-01-06T14:27:44;85.93;;;42.47;;
48703;SDS011;34502;51.296;16.918;2024-01-06T14:30:10;74.70;;;38.50;;
48703;SDS011;34502;51.296;16.918;2024-01-06T14:32:37;78.90;;;40.30;;
48703;SDS011;34502;51.296;16.918;2024-01-06T14:35:06;81.00;;;42.85;;
48703;SDS011;34502;51.296;16.918;2024-01-06T14:37:35;78.22;;;42.20;;
48703;SDS011;34502;51.296;16.918;2024-01-06T14:40:01;69.95;;;38.53;;
48703;SDS011;34502;51.296;16.918;2024-01-06T14:42:31;72.68;;;38.63;;
48703;SDS011;34502;51.296;16.918;2024-01-06T14:44:57;73.13;;;38.67;;
48703;SDS011;34502;51.296;16.918;2024-01-06T14:47:24;78.10;;;42.10;;
48703;SDS011;34502;51.296;16.918;2024-01-06T14:49:50;74.18;;;42.70;;
48703;SDS011;34502;51.296;16.918;2024-01-06T14:52:17;76.20;;;41.10;;
48703;SDS011;34502;51.296;16.918;2024-01-06T14:54:45;83.43;;;40.45;;
48703;SDS011;34502;51.296;16.918;2024-01-06T14:57:13;79.07;;;40.75;;
48703;SDS011;34502;51.296;16.918;2024-01-06T14:59:40;67.22;;;37.00;;
48703;SDS011;34502;51.296;16.918;2024-01-06T15:02:07;70.78;;;37.13;;
48703;SDS011;34502;51.296;16.918;2024-01-06T15:04:33;81.13;;;42.90;;
48703;SDS011;34502;51.296;16.918;2024-01-06T15:07:03;73.38;;;42.00;;
48703;SDS011;34502;51.296;16.918;2024-01-06T15:09:29;74.32;;;39.67;;
48703;SDS011;34502;51.296;16.918;2024-01-06T15:11:55;77.18;;;42.63;;
48703;SDS011;34502;51.296;16.918;2024-01-06T15:14:21;99.00;;;55.85;;
48703;SDS011;34502;51.296;16.918;2024-01-06T15:16:48;79.72;;;44.70;;
48703;SDS011;34502;51.296;16.918;2024-01-06T15:19:14;69.55;;;39.72;;
48703;SDS011;34502;51.296;16.918;2024-01-06T15:21:40;87.30;;;44.05;;
48703;SDS011;34502;51.296;16.918;2024-01-06T15:24:07;81.70;;;43.63;;
48703;SDS011;34502;51.296;16.918;2024-01-06T15:26:34;74.72;;;40.88;;
48703;SDS011;34502;51.296;16.918;2024-01-06T15:29:00;76.10;;;38.40;;
48703;SDS011;34502;51.296;16.918;2024-01-06T15:31:27;79.30;;;42.28;;
48703;SDS011;34502;51.296;16.918;2024-01-06T15:33:54;69.00;;;37.00;;
48703;SDS011;34502;51.296;16.918;2024-01-06T15:36:22;70.22;;;39.38;;
48703;SDS011;34502;51.296;16.918;2024-01-06T15:38:48;71.97;;;39.33;;
48703;SDS011;34502;51.296;16.918;2024-01-06T15:41:14;64.18;;;34.30;;
48703;SDS011;34502;51.296;16.918;2024-01-06T15:43:41;73.43;;;39.15;;
48703;SDS011;34502;51.296;16.918;2024-01-06T15:46:07;68.38;;;36.88;;
48703;SDS011;34502;51.296;16.918;2024-01-06T15:48:33;69.85;;;37.30;;
48703;SDS011;34502;51.296;16.918;2024-01-06T15:51:01;64.63;;;35.22;;
48703;SDS011;34502;51.296;16.918;2024-01-06T15:53:27;67.40;;;37.55;;
48703;SDS011;34502;51.296;16.918;2024-01-06T15:55:53;71.38;;;37.65;;
48703;SDS011;34502;51.296;16.918;2024-01-06T15:58:20;68.70;;;36.25;;
48703;SDS011;34502;51.296;16.918;2024-01-06T16:00:46;65.97;;;36.47;;
48703;SDS011;34502;51.296;16.918;2024-01-06T16:03:12;60.80;;;35.47;;
48703;SDS011;34502;51.296;16.918;2024-01-06T16:05:38;65.28;;;35.53;;
48703;SDS011;34502;51.296;16.918;2024-01-06T16:08:05;61.15;;;34.03;;
48703;SDS011;34502;51.296;16.918;2024-01-06T16:10:32;59.60;;;32.90;;
48703;SDS011;34502;51.296;16.918;2024-01-06T16:13:01;74.63;;;40.35;;
48703;SDS011;34502;51.296;16.918;2024-01-06T16:15:28;59.78;;;33.83;;
48703;SDS011;34502;51.296;16.918;2024-01-06T16:17:54;56.22;;;32.95;;
48703;SDS011;34502;51.296;16.918;2024-01-06T16:20:20;49.78;;;29.95;;
48703;SDS011;34502;51.296;16.918;2024-01-06T16:22:46;54.67;;;30.15;;
48703;SDS011;34502;51.296;16.918;2024-01-06T16:25:15;58.25;;;30.85;;
48703;SDS011;34502;51.296;16.918;2024-01-06T16:27:41;58.72;;;33.80;;
48703;SDS011;34502;51.296;16.918;2024-01-06T16:30:08;54.72;;;31.27;;
48703;SDS011;34502;51.296;16.918;2024-01-06T16:32:34;67.13;;;36.58;;
48703;SDS011;34502;51.296;16.918;2024-01-06T16:35:01;56.78;;;31.88;;
48703;SDS011;34502;51.296;16.918;2024-01-06T16:37:27;61.67;;;34.45;;
48703;SDS011;34502;51.296;16.918;2024-01-06T16:39:53;62.50;;;33.17;;
48703;SDS011;34502;51.296;16.918;2024-01-06T16:42:19;64.80;;;34.13;;
48703;SDS011;34502;51.296;16.918;2024-01-06T16:44:45;55.72;;;32.33;;
48703;SDS011;34502;51.296;16.918;2024-01-06T16:47:11;55.83;;;31.65;;
48703;SDS011;34502;51.296;16.918;2024-01-06T16:49:37;57.53;;;31.98;;
48703;SDS011;34502;51.296;16.918;2024-01-06T16:52:04;58.33;;;33.40;;
48703;SDS011;34502;51.296;16.918;2024-01-06T16:54:30;54.88;;;31.58;;
48703;SDS011;34502;51.296;16.918;2024-01-06T16:56:56;55.70;;;30.80;;
48703;SDS011;34502;51.296;16.918;2024-01-06T16:59:25;60.20;;;31.88;;
48703;SDS011;34502;51.296;16.918;2024-01-06T17:01:54;55.97;;;31.02;;
48703;SDS011;34502;51.296;16.918;2024-01-06T17:04:20;60.50;;;33.42;;
48703;SDS011;34502;51.296;16.918;2024-01-06T17:06:46;62.20;;;32.58;;
48703;SDS011;34502;51.296;16.918;2024-01-06T17:09:12;56.35;;;31.05;;
48703;SDS011;34502;51.296;16.918;2024-01-06T17:11:39;55.58;;;30.60;;
48703;SDS011;34502;51.296;16.918;2024-01-06T17:14:05;59.88;;;33.92;;
48703;SDS011;34502;51.296;16.918;2024-01-06T17:16:31;53.80;;;31.17;;
48703;SDS011;34502;51.296;16.918;2024-01-06T17:18:57;53.38;;;30.67;;
48703;SDS011;34502;51.296;16.918;2024-01-06T17:21:23;57.72;;;31.38;;
48703;SDS011;34502;51.296;16.918;2024-01-06T17:23:50;57.95;;;31.55;;
48703;SDS011;34502;51.296;16.918;2024-01-06T17:26:18;54.03;;;30.65;;
48703;SDS011;34502;51.296;16.918;2024-01-06T17:28:44;64.03;;;32.15;;
48703;SDS011;34502;51.296;16.918;2024-01-06T17:31:11;62.45;;;34.25;;
48703;SDS011;34502;51.296;16.918;2024-01-06T17:33:37;62.38;;;32.85;;
48703;SDS011;34502;51.296;16.918;2024-01-06T17:36:03;53.80;;;30.75;;
48703;SDS011;34502;51.296;16.918;2024-01-06T17:38:35;56.75;;;30.30;;
48703;SDS011;34502;51.296;16.918;2024-01-06T17:41:01;64.70;;;30.20;;
48703;SDS011;34502;51.296;16.918;2024-01-06T17:43:28;54.45;;;30.50;;
48703;SDS011;34502;51.296;16.918;2024-01-06T17:45:55;53.63;;;28.92;;
48703;SDS011;34502;51.296;16.918;2024-01-06T17:48:21;49.35;;;28.45;;
48703;SDS011;34502;51.296;16.918;2024-01-06T17:50:47;54.28;;;30.15;;
48703;SDS011;34502;51.296;16.918;2024-01-06T17:53:13;50.35;;;27.33;;
48703;SDS011;34502;51.296;16.918;2024-01-06T17:55:39;53.90;;;28.05;;
48703;SDS011;34502;51.296;16.918;2024-01-06T17:58:08;50.05;;;27.50;;
48703;SDS011;34502;51.296;16.918;2024-01-06T18:00:34;54.05;;;28.88;;
48703;SDS011;34502;51.296;16.918;2024-01-06T18:03:00;51.17;;;28.40;;
48703;SDS011;34502;51.296;16.918;2024-01-06T18:05:28;54.67;;;27.58;;
48703;SDS011;34502;51.296;16.918;2024-01-06T18:07:54;47.55;;;26.30;;
48703;SDS011;34502;51.296;16.918;2024-01-06T18:10:21;46.00;;;25.35;;
48703;SDS011;34502;51.296;16.918;2024-01-06T18:12:47;45.35;;;24.65;;
48703;SDS011;34502;51.296;16.918;2024-01-06T18:15:13;50.95;;;24.70;;
48703;SDS011;34502;51.296;16.918;2024-01-06T18:17:40;45.72;;;23.73;;
48703;SDS011;34502;51.296;16.918;2024-01-06T18:20:06;44.88;;;24.45;;
48703;SDS011;34502;51.296;16.918;2024-01-06T18:22:34;46.72;;;24.92;;
48703;SDS011;34502;51.296;16.918;2024-01-06T18:25:00;50.40;;;26.05;;
48703;SDS011;34502;51.296;16.918;2024-01-06T18:27:26;43.30;;;23.48;;
48703;SDS011;34502;51.296;16.918;2024-01-06T18:29:52;39.35;;;22.55;;
48703;SDS011;34502;51.296;16.918;2024-01-06T18:32:18;46.38;;;22.63;;
48703;SDS011;34502;51.296;16.918;2024-01-06T18:34:44;41.72;;;23.35;;
48703;SDS011;34502;51.296;16.918;2024-01-06T18:37:11;39.90;;;23.70;;
48703;SDS011;34502;51.296;16.918;2024-01-06T18:39:38;39.50;;;21.83;;
48703;SDS011;34502;51.296;16.918;2024-01-06T18:42:05;44.70;;;23.33;;
48703;SDS011;34502;51.296;16.918;2024-01-06T18:44:34;38.83;;;21.67;;
48703;SDS011;34502;51.296;16.918;2024-01-06T18:47:00;42.47;;;22.10;;
48703;SDS011;34502;51.296;16.918;2024-01-06T18:49:33;37.63;;;21.55;;
48703;SDS011;34502;51.296;16.918;2024-01-06T18:52:00;40.80;;;21.73;;
48703;SDS011;34502;51.296;16.918;2024-01-06T18:54:26;37.25;;;22.30;;
48703;SDS011;34502;51.296;16.918;2024-01-06T18:56:52;45.72;;;24.27;;
48703;SDS011;34502;51.296;16.918;2024-01-06T18:59:18;40.00;;;20.73;;
48703;SDS011;34502;51.296;16.918;2024-01-06T19:01:45;39.58;;;21.17;;
48703;SDS011;34502;51.296;16.918;2024-01-06T19:04:11;42.55;;;22.50;;
48703;SDS011;34502;51.296;16.918;2024-01-06T19:06:37;45.13;;;22.55;;
48703;SDS011;34502;51.296;16.918;2024-01-06T19:09:04;41.60;;;20.23;;
48703;SDS011;34502;51.296;16.918;2024-01-06T19:11:32;35.42;;;20.75;;
48703;SDS011;34502;51.296;16.918;2024-01-06T19:13:58;36.08;;;21.10;;
48703;SDS011;34502;51.296;16.918;2024-01-06T19:16:24;36.15;;;21.00;;
48703;SDS011;34502;51.296;16.918;2024-01-06T19:18:50;33.70;;;19.33;;
48703;SDS011;34502;51.296;16.918;2024-01-06T19:21:16;36.30;;;20.00;;
48703;SDS011;34502;51.296;16.918;2024-01-06T19:23:44;41.80;;;21.20;;
48703;SDS011;34502;51.296;16.918;2024-01-06T19:26:10;33.20;;;20.40;;
48703;SDS011;34502;51.296;16.918;2024-01-06T19:28:37;36.00;;;19.42;;
48703;SDS011;34502;51.296;16.918;2024-01-06T19:31:04;37.30;;;21.17;;
48703;SDS011;34502;51.296;16.918;2024-01-06T19:33:30;34.00;;;20.40;;
48703;SDS011;34502;51.296;16.918;2024-01-06T19:35:59;34.03;;;20.95;;
48703;SDS011;34502;51.296;16.918;2024-01-06T19:38:25;33.72;;;19.42;;
48703;SDS011;34502;51.296;16.918;2024-01-06T19:40:51;31.88;;;19.85;;
48703;SDS011;34502;51.296;16.918;2024-01-06T19:43:17;37.10;;;19.50;;
48703;SDS011;34502;51.296;16.918;2024-01-06T19:45:46;38.67;;;18.48;;
48703;SDS011;34502;51.296;16.918;2024-01-06T19:48:17;31.95;;;18.13;;
48703;SDS011;34502;51.296;16.918;2024-01-06T19:50:43;35.40;;;19.10;;
48703;SDS011;34502;51.296;16.918;2024-01-06T19:53:09;45.45;;;20.05;;
48703;SDS011;34502;51.296;16.918;2024-01-06T19:55:35;39.95;;;20.67;;
48703;SDS011;34502;51.296;16.918;2024-01-06T19:58:01;36.03;;;20.00;;
48703;SDS011;34502;51.296;16.918;2024-01-06T20:00:28;37.08;;;20.00;;
48703;SDS011;34502;51.296;16.918;2024-01-06T20:02:55;35.25;;;18.85;;
48703;SDS011;34502;51.296;16.918;2024-01-06T20:05:22;34.78;;;19.45;;
48703;SDS011;34502;51.296;16.918;2024-01-06T20:07:49;35.17;;;20.02;;
48703;SDS011;34502;51.296;16.918;2024-01-06T20:10:16;33.88;;;17.52;;
48703;SDS011;34502;51.296;16.918;2024-01-06T20:12:42;37.55;;;18.88;;
48703;SDS011;34502;51.296;16.918;2024-01-06T20:15:08;40.67;;;20.73;;
48703;SDS011;34502;51.296;16.918;2024-01-06T20:17:35;44.20;;;22.25;;
48703;SDS011;34502;51.296;16.918;2024-01-06T20:20:01;34.97;;;17.08;;
48703;SDS011;34502;51.296;16.918;2024-01-06T20:22:28;38.92;;;20.38;;
48703;SDS011;34502;51.296;16.918;2024-01-06T20:24:54;37.72;;;19.80;;
48703;SDS011;34502;51.296;16.918;2024-01-06T20:27:20;37.33;;;19.67;;
48703;SDS011;34502;51.296;16.918;2024-01-06T20:29:49;36.05;;;19.30;;
48703;SDS011;34502;51.296;16.918;2024-01-06T20:32:17;41.60;;;20.40;;
48703;SDS011;34502;51.296;16.918;2024-01-06T20:34:44;34.97;;;18.92;;
48703;SDS011;34502;51.296;16.918;2024-01-06T20:37:11;37.55;;;19.15;;
48703;SDS011;34502;51.296;16.918;2024-01-06T20:39:37;35.65;;;20.02;;
48703;SDS011;34502;51.296;16.918;2024-01-06T20:42:04;33.13;;;17.92;;
48703;SDS011;34502;51.296;16.918;2024-01-06T20:44:30;34.25;;;18.48;;
48703;SDS011;34502;51.296;16.918;2024-01-06T20:46:56;35.53;;;20.85;;
48703;SDS011;34502;51.296;16.918;2024-01-06T20:49:23;39.97;;;19.75;;
48703;SDS011;34502;51.296;16.918;2024-01-06T20:51:53;35.67;;;19.23;;
48703;SDS011;34502;51.296;16.918;2024-01-06T20:54:20;44.47;;;21.23;;
48703;SDS011;34502;51.296;16.918;2024-01-06T20:56:46;37.90;;;18.73;;
48703;SDS011;34502;51.296;16.918;2024-01-06T20:59:12;38.97;;;19.48;;
48703;SDS011;34502;51.296;16.918;2024-01-06T21:01:38;38.10;;;19.98;;
48703;SDS011;34502;51.296;16.918;2024-01-06T21:04:04;34.22;;;19.05;;
48703;SDS011;34502;51.296;16.918;2024-01-06T21:06:31;32.85;;;19.55;;
48703;SDS011;34502;51.296;16.918;2024-01-06T21:08:58;40.00;;;21.30;;
48703;SDS011;34502;51.296;16.918;2024-01-06T21:11:24;37.47;;;19.92;;
48703;SDS011;34502;51.296;16.918;2024-01-06T21:13:50;36.25;;;19.45;;
48703;SDS011;34502;51.296;16.918;2024-01-06T21:16:16;33.88;;;20.02;;
48703;SDS011;34502;51.296;16.918;2024-01-06T21:18:43;41.05;;;20.67;;
48703;SDS011;34502;51.296;16.918;2024-01-06T21:21:14;37.80;;;19.98;;
48703;SDS011;34502;51.296;16.918;2024-01-06T21:23:43;31.40;;;16.42;;
48703;SDS011;34502;51.296;16.918;2024-01-06T21:26:09;34.70;;;18.35;;
48703;SDS011;34502;51.296;16.918;2024-01-06T21:28:36;26.90;;;15.80;;
48703;SDS011;34502;51.296;16.918;2024-01-06T21:31:02;30.92;;;15.45;;
48703;SDS011;34502;51.296;16.918;2024-01-06T21:33:29;31.35;;;17.35;;
48703;SDS011;34502;51.296;16.918;2024-01-06T21:35:55;34.60;;;18.35;;
48703;SDS011;34502;51.296;16.918;2024-01-06T21:38:21;39.20;;;20.48;;
48703;SDS011;34502;51.296;16.918;2024-01-06T21:40:48;32.88;;;18.30;;
48703;SDS011;34502;51.296;16.918;2024-01-06T21:43:14;32.88;;;16.65;;
48703;SDS011;34502;51.296;16.918;2024-01-06T21:45:40;32.78;;;16.00;;
48703;SDS011;34502;51.296;16.918;2024-01-06T21:48:06;33.00;;;17.08;;
48703;SDS011;34502;51.296;16.918;2024-01-06T21:50:35;31.38;;;15.75;;
48703;SDS011;34502;51.296;16.918;2024-01-06T21:53:01;29.75;;;14.75;;
48703;SDS011;34502;51.296;16.918;2024-01-06T21:55:27;25.83;;;13.95;;
48703;SDS011;34502;51.296;16.918;2024-01-06T21:57:54;28.35;;;15.88;;
48703;SDS011;34502;51.296;16.918;2024-01-06T22:00:21;30.42;;;15.02;;
48703;SDS011;34502;51.296;16.918;2024-01-06T22:02:47;31.40;;;14.90;;
48703;SDS011;34502;51.296;16.918;2024-01-06T22:05:16;28.38;;;14.70;;
48703;SDS011;34502;51.296;16.918;2024-01-06T22:07:42;29.42;;;13.13;;
48703;SDS011;34502;51.296;16.918;2024-01-06T22:10:09;25.50;;;14.10;;
